createdAt,value
2018-09-10T00:00:03.269Z,101619.40
2018-09-10T00:03:07.488Z,101619.47
2018-09-10T00:06:12.420Z,101620.35
2018-09-10T00:09:16.674Z,101626.48
2018-09-10T00:12:20.872Z,101619.48
2018-09-10T00:15:25.088Z,101617.55
2018-09-10T00:18:29.291Z,101612.86
2018-09-10T00:21:33.529Z,101602.69
2018-09-10T00:24:37.737Z,101604.91
2018-09-10T00:27:41.944Z,101611.53
2018-09-10T00:30:46.144Z,101604.42
2018-09-10T00:33:50.360Z,101613.30
2018-09-10T00:36:54.570Z,101614.45
2018-09-10T00:39:58.794Z,101611.25
2018-09-10T00:43:02.997Z,101606.88
2018-09-10T00:46:07.241Z,101608.26
2018-09-10T00:49:11.491Z,101599.52
2018-09-10T00:52:15.704Z,101606.70
2018-09-10T00:55:19.922Z,101594.77
2018-09-10T00:58:24.170Z,101601.91
2018-09-10T01:01:28.377Z,101597.02
2018-09-10T01:04:32.599Z,101597.02
2018-09-10T01:07:36.824Z,101594.80
2018-09-10T01:10:41.054Z,101590.39
2018-09-10T01:13:45.272Z,101591.42
2018-09-10T01:16:49.476Z,101594.10
2018-09-10T01:19:54.337Z,101592.02
2018-09-10T01:22:58.581Z,101598.32
2018-09-10T01:26:03.580Z,101598.42
2018-09-10T01:29:07.793Z,101593.55
2018-09-10T01:32:12.037Z,101592.43
2018-09-10T01:35:16.234Z,101594.05
2018-09-10T01:38:20.457Z,101600.04
2018-09-10T01:41:24.708Z,101598.42
2018-09-10T01:44:28.925Z,101591.09
2018-09-10T01:47:33.108Z,101585.81
2018-09-10T01:50:37.309Z,101586.66
2018-09-10T01:53:41.529Z,101575.36
2018-09-10T01:56:45.733Z,101573.17
2018-09-10T01:59:49.937Z,101579.32
2018-09-10T02:02:54.345Z,101585.51
2018-09-10T02:05:58.660Z,101573.64
2018-09-10T02:09:02.868Z,101568.30
2018-09-10T02:12:11.172Z,101562.21
2018-09-10T02:15:15.413Z,101547.64
2018-09-10T02:18:20.913Z,101541.48
2018-09-10T02:21:25.137Z,101552.72
2018-09-10T02:24:29.337Z,101558.06
2018-09-10T02:27:33.619Z,101549.76
2018-09-10T02:30:37.769Z,101548.35
2018-09-10T02:33:42.027Z,101551.98
2018-09-10T02:36:46.233Z,101551.76
2018-09-10T02:39:50.461Z,101547.89
2018-09-10T02:42:54.690Z,101535.53
2018-09-10T02:45:58.900Z,101528.53
2018-09-10T02:49:03.092Z,101527.47
2018-09-10T02:52:07.310Z,101528.78
2018-09-10T02:55:11.595Z,101529.53
2018-09-10T02:58:15.856Z,101520.20
2018-09-10T03:01:20.082Z,101517.92
2018-09-10T03:04:24.297Z,101519.83
2018-09-10T03:07:28.935Z,101511.55
2018-09-10T03:10:33.178Z,101506.06
2018-09-10T03:13:37.416Z,101517.23
2018-09-10T03:16:41.636Z,101516.17
2018-09-10T03:19:45.866Z,101512.33
2018-09-10T03:22:50.089Z,101521.59
2018-09-10T03:25:54.284Z,101527.69
2018-09-10T03:28:58.506Z,101532.58
2018-09-10T03:32:02.736Z,101539.69
2018-09-10T03:35:06.949Z,101543.62
2018-09-10T03:38:11.881Z,101549.64
2018-09-10T03:41:16.095Z,101552.67
2018-09-10T03:44:20.324Z,101544.69
2018-09-10T03:47:24.556Z,101548.42
2018-09-10T03:50:28.797Z,101550.85
2018-09-10T03:53:32.997Z,101552.37
2018-09-10T03:56:37.237Z,101561.09
2018-09-10T03:59:41.449Z,101556.09
2018-09-10T04:02:45.669Z,101556.59
2018-09-10T04:05:49.848Z,101556.48
2018-09-10T04:08:54.038Z,101562.11
2018-09-10T04:11:58.232Z,101565.63
2018-09-10T04:15:02.469Z,101558.73
2018-09-10T04:18:06.704Z,101545.50
2018-09-10T04:21:11.637Z,101544.66
2018-09-10T04:24:15.841Z,101549.72
2018-09-10T04:27:20.079Z,101548.63
2018-09-10T04:30:24.338Z,101551.52
2018-09-10T04:33:28.548Z,101551.42
2018-09-10T04:36:32.781Z,101549.97
2018-09-10T04:39:37.031Z,101553.53
2018-09-10T04:42:41.301Z,101565.88
2018-09-10T04:45:45.517Z,101562.89
2018-09-10T04:48:49.753Z,101564.65
2018-09-10T04:51:53.949Z,101562.39
2018-09-10T04:54:58.181Z,101560.74
2018-09-10T04:58:02.712Z,101561.02
2018-09-10T05:01:06.945Z,101560.78
2018-09-10T05:04:11.165Z,101560.98
2018-09-10T05:07:15.388Z,101559.62
2018-09-10T05:10:19.614Z,101558.48
2018-09-10T05:13:23.894Z,101540.05
2018-09-10T05:16:28.114Z,101539.70
2018-09-10T05:19:33.790Z,101545.78
2018-09-10T05:22:38.053Z,101555.46
2018-09-10T05:25:42.301Z,101550.78
2018-09-10T05:28:46.528Z,101561.27
2018-09-10T05:31:50.797Z,101562.70
2018-09-10T05:34:55.033Z,101562.89
2018-09-10T05:37:59.288Z,101563.38
2018-09-10T05:41:03.510Z,101560.14
2018-09-10T05:44:07.793Z,101565.11
2018-09-10T05:47:12.161Z,101578.34
2018-09-10T05:50:16.393Z,101572.32
2018-09-10T05:53:20.746Z,101572.32
2018-09-10T05:56:24.904Z,101576.23
2018-09-10T05:59:29.135Z,101563.62
2018-09-10T06:02:33.399Z,101570.23
2018-09-10T06:05:37.636Z,101579.70
2018-09-10T06:08:41.924Z,101572.87
2018-09-10T06:11:46.156Z,101581.28
2018-09-10T06:14:50.384Z,101584.34
2018-09-10T06:17:54.641Z,101580.06
2018-09-10T06:20:58.873Z,101573.80
2018-09-10T06:24:03.109Z,101580.45
2018-09-10T06:27:07.353Z,101587.94
2018-09-10T06:30:11.632Z,101590.19
2018-09-10T06:33:15.885Z,101591.38
2018-09-10T06:36:20.142Z,101587.78
2018-09-10T06:39:24.364Z,101591.16
2018-09-10T06:42:28.628Z,101585.26
2018-09-10T06:45:32.849Z,101584.76
2018-09-10T06:48:37.109Z,101579.09
2018-09-10T06:51:41.352Z,101586.62
2018-09-10T06:54:45.591Z,101592.45
2018-09-10T06:57:49.877Z,101595.83
2018-09-10T07:00:54.120Z,101587.72
2018-09-10T07:03:58.340Z,101598.38
2018-09-10T07:07:02.599Z,101599.69
2018-09-10T07:10:07.561Z,101601.73
2018-09-10T07:13:11.867Z,101596.59
2018-09-10T07:16:16.054Z,101598.84
2018-09-10T07:19:20.301Z,101592.65
2018-09-10T07:22:24.512Z,101598.08
2018-09-10T07:25:28.791Z,101601.17
2018-09-10T07:28:33.012Z,101604.80
2018-09-10T07:31:37.251Z,101598.47
2018-09-10T07:34:41.503Z,101605.72
2018-09-10T07:37:45.730Z,101600.82
2018-09-10T07:40:49.957Z,101599.25
2018-09-10T07:43:54.366Z,101593.00
2018-09-10T07:46:58.634Z,101593.86
2018-09-10T07:50:02.896Z,101601.63
2018-09-10T07:53:07.133Z,101609.07
2018-09-10T07:56:11.368Z,101602.49
2018-09-10T07:59:15.625Z,101603.30
2018-09-10T08:02:19.913Z,101608.55
2018-09-10T08:05:24.156Z,101608.88
2018-09-10T08:08:28.370Z,101605.53
2018-09-10T08:11:32.585Z,101606.66
2018-09-10T08:14:36.849Z,101617.16
2018-09-10T08:17:41.092Z,101623.84
2018-09-10T08:20:45.312Z,101618.90
2018-09-10T08:23:49.569Z,101626.86
2018-09-10T08:26:53.777Z,101617.20
2018-09-10T08:29:59.038Z,101618.59
2018-09-10T08:33:03.274Z,101623.03
2018-09-10T08:36:07.569Z,101626.94
2018-09-10T08:39:11.795Z,101632.75
2018-09-10T08:42:16.049Z,101624.22
2018-09-10T08:45:20.285Z,101628.05
2018-09-10T08:48:24.586Z,101633.82
2018-09-10T08:51:28.777Z,101641.83
2018-09-10T08:54:33.189Z,101641.36
2018-09-10T08:57:37.276Z,101642.15
2018-09-10T09:00:41.518Z,101643.59
2018-09-10T09:03:45.733Z,101650.05
2018-09-10T09:06:50.019Z,101647.30
2018-09-10T09:09:54.258Z,101643.77
2018-09-10T09:12:58.510Z,101643.67
2018-09-10T09:16:02.762Z,101652.01
2018-09-10T09:19:06.974Z,101647.80
2018-09-10T09:22:11.185Z,101641.69
2018-09-10T09:25:15.405Z,101641.44
2018-09-10T09:28:20.517Z,101653.69
2018-09-10T09:31:24.738Z,101651.80
2018-09-10T09:34:33.061Z,101661.77
2018-09-10T09:37:42.577Z,101660.93
2018-09-10T09:40:52.142Z,101660.59
2018-09-10T09:44:01.757Z,101659.92
2018-09-10T09:47:06.013Z,101673.34
2018-09-10T09:50:10.231Z,101666.17
2018-09-10T09:53:14.457Z,101658.66
2018-09-10T09:56:18.661Z,101662.76
2018-09-10T09:59:22.886Z,101666.38
2018-09-10T10:02:32.317Z,101670.78
2018-09-10T10:05:36.516Z,101663.61
2018-09-10T10:08:40.747Z,101667.25
2018-09-10T10:11:44.974Z,101676.03
2018-09-10T10:14:49.220Z,101674.73
2018-09-10T10:17:53.418Z,101679.22
2018-09-10T10:20:57.637Z,101682.82
2018-09-10T10:24:01.869Z,101679.21
2018-09-10T10:27:06.096Z,101678.88
2018-09-10T10:30:10.327Z,101692.38
2018-09-10T10:33:14.557Z,101681.86
2018-09-10T10:36:18.778Z,101689.34
2018-09-10T10:39:23.063Z,101679.59
2018-09-10T10:42:27.233Z,101687.03
2018-09-10T10:45:31.428Z,101687.30
2018-09-10T10:48:35.648Z,101693.09
2018-09-10T10:51:39.837Z,101702.13
2018-09-10T10:54:44.065Z,101703.73
2018-09-10T10:57:48.264Z,101701.73
2018-09-10T11:00:52.486Z,101702.83
2018-09-10T11:03:56.693Z,101709.16
2018-09-10T11:07:00.904Z,101695.57
2018-09-10T11:10:05.461Z,101695.50
2018-09-10T11:13:09.693Z,101703.95
2018-09-10T11:16:13.908Z,101711.95
2018-09-10T11:19:18.150Z,101707.81
2018-09-10T11:22:22.374Z,101710.31
2018-09-10T11:25:26.642Z,101716.34
2018-09-10T11:28:30.845Z,101725.95
2018-09-10T11:31:35.058Z,101724.35
2018-09-10T11:34:39.319Z,101727.70
2018-09-10T11:37:43.533Z,101732.39
2018-09-10T11:40:47.768Z,101734.92
2018-09-10T11:43:51.984Z,101731.33
2018-09-10T11:46:56.205Z,101734.94
2018-09-10T11:50:00.418Z,101733.82
2018-09-10T11:53:04.650Z,101745.95
2018-09-10T11:56:08.930Z,101748.98
2018-09-10T11:59:13.134Z,101749.05
2018-09-10T12:02:17.345Z,101761.84
2018-09-10T12:05:21.584Z,101764.09
2018-09-10T12:08:25.812Z,101769.14
2018-09-10T12:11:30.041Z,101776.98
2018-09-10T12:14:34.424Z,101780.58
2018-09-10T12:17:38.649Z,101789.45
2018-09-10T12:20:42.874Z,101784.84
2018-09-10T12:23:47.090Z,101782.30
2018-09-10T12:26:51.345Z,101784.19
2018-09-10T12:29:55.553Z,101786.56
2018-09-10T12:32:59.777Z,101785.37
2018-09-10T12:36:04.126Z,101774.81
2018-09-10T12:39:10.417Z,101777.50
2018-09-10T12:42:14.620Z,101780.77
2018-09-10T12:45:18.874Z,101779.67
2018-09-10T12:48:23.104Z,101776.44
2018-09-10T12:51:27.332Z,101787.79
2018-09-10T12:54:31.541Z,101778.40
2018-09-10T12:57:35.792Z,101783.61
2018-09-10T13:00:40.022Z,101777.28
2018-09-10T13:03:44.245Z,101774.78
2018-09-10T13:06:48.468Z,101782.09
2018-09-10T13:09:52.688Z,101776.48
2018-09-10T13:12:56.915Z,101763.75
2018-09-10T13:16:01.178Z,101772.26
2018-09-10T13:19:05.511Z,101771.02
2018-09-10T13:22:09.792Z,101762.37
2018-09-10T13:25:13.996Z,101775.02
2018-09-10T13:28:18.233Z,101770.28
2018-09-10T13:31:22.564Z,101770.79
2018-09-10T13:34:26.812Z,101775.44
2018-09-10T13:37:31.054Z,101780.03
2018-09-10T13:40:35.275Z,101776.95
2018-09-10T13:43:39.575Z,101777.69
2018-09-10T13:46:43.853Z,101781.75
2018-09-10T13:49:48.085Z,101782.28
2018-09-10T13:52:52.277Z,101780.09
2018-09-10T13:55:56.487Z,101782.28
2018-09-10T13:59:00.709Z,101783.97
2018-09-10T14:02:04.920Z,101783.38
2018-09-10T14:05:09.169Z,101794.66
2018-09-10T14:08:13.386Z,101791.80
2018-09-10T14:11:17.720Z,101793.15
2018-09-10T14:14:21.919Z,101793.17
2018-09-10T14:17:26.157Z,101796.94
2018-09-10T14:20:30.393Z,101800.14
2018-09-10T14:23:34.649Z,101807.00
2018-09-10T14:26:38.883Z,101807.28
2018-09-10T14:29:43.089Z,101812.79
2018-09-10T14:32:47.309Z,101811.41
2018-09-10T14:35:51.556Z,101797.62
2018-09-10T14:38:55.788Z,101793.72
2018-09-10T14:42:00.085Z,101804.08
2018-09-10T14:45:04.326Z,101812.14
2018-09-10T14:48:08.548Z,101816.89
2018-09-10T14:51:12.788Z,101807.48
2018-09-10T14:54:17.002Z,101804.92
2018-09-10T14:57:21.249Z,101801.64
2018-09-10T15:00:26.348Z,101812.56
2018-09-10T15:03:30.575Z,101824.98
2018-09-10T15:06:34.829Z,101831.61
2018-09-10T15:09:39.030Z,101823.09
2018-09-10T15:12:43.237Z,101815.96
2018-09-10T15:15:47.520Z,101810.70
2018-09-10T15:18:51.825Z,101808.52
2018-09-10T15:21:55.990Z,101815.94
2018-09-10T15:25:00.201Z,101807.95
2018-09-10T15:28:04.426Z,101812.59
2018-09-10T15:31:08.656Z,101797.08
2018-09-10T15:34:12.880Z,101794.69
2018-09-10T15:37:17.181Z,101804.05
2018-09-10T15:40:21.416Z,101803.16
2018-09-10T15:43:25.626Z,101794.23
2018-09-10T15:46:29.925Z,101796.99
2018-09-10T15:49:34.128Z,101804.19
2018-09-10T15:52:38.337Z,101803.78
2018-09-10T15:55:42.532Z,101802.56
2018-09-10T15:58:46.764Z,101805.76
2018-09-10T16:01:50.981Z,101809.26
2018-09-10T16:04:55.238Z,101813.89
2018-09-10T16:07:59.472Z,101830.08
2018-09-10T16:11:03.676Z,101824.73
2018-09-10T16:14:07.917Z,101824.91
2018-09-10T16:17:12.141Z,101813.28
2018-09-10T16:20:16.349Z,101815.16
2018-09-10T16:23:20.576Z,101799.74
2018-09-10T16:26:24.801Z,101807.44
2018-09-10T16:29:29.048Z,101805.98
2018-09-10T16:32:33.257Z,101791.11
2018-09-10T16:35:37.492Z,101791.86
2018-09-10T16:38:41.702Z,101789.88
2018-09-10T16:41:45.933Z,101786.82
2018-09-10T16:44:50.161Z,101775.64
2018-09-10T16:47:54.364Z,101771.77
2018-09-10T16:50:58.599Z,101780.86
2018-09-10T16:54:02.900Z,101783.36
2018-09-10T16:57:07.080Z,101780.89
2018-09-10T17:00:11.327Z,101784.48
2018-09-10T17:03:15.552Z,101783.67
2018-09-10T17:06:19.789Z,101785.30
2018-09-10T17:09:23.976Z,101791.86
2018-09-10T17:12:28.199Z,101798.66
2018-09-10T17:15:32.391Z,101791.44
2018-09-10T17:18:36.610Z,101797.12
2018-09-10T17:21:40.808Z,101789.11
2018-09-10T17:24:45.044Z,101797.36
2018-09-10T17:27:49.237Z,101797.02
2018-09-10T17:30:53.501Z,101795.25
2018-09-10T17:33:57.692Z,101802.86
2018-09-10T17:37:01.902Z,101797.02
2018-09-10T17:40:06.169Z,101798.56
2018-09-10T17:43:10.561Z,101798.94
2018-09-10T17:46:15.337Z,101798.23
2018-09-10T17:49:19.540Z,101807.16
2018-09-10T17:52:23.717Z,101799.09
2018-09-10T17:55:27.942Z,101803.09
2018-09-10T17:58:32.146Z,101799.38
2018-09-10T18:01:36.353Z,101804.16
2018-09-10T18:04:40.589Z,101801.00
2018-09-10T18:07:44.769Z,101803.03
2018-09-10T18:10:48.981Z,101806.49
2018-09-10T18:13:53.191Z,101802.16
2018-09-10T18:16:57.409Z,101792.67
2018-09-10T18:20:01.626Z,101789.20
2018-09-10T18:23:05.848Z,101788.21
2018-09-10T18:26:10.073Z,101793.33
2018-09-10T18:29:14.309Z,101794.25
2018-09-10T18:32:18.517Z,101793.59
2018-09-10T18:35:22.722Z,101794.08
2018-09-10T18:38:26.937Z,101796.20
2018-09-10T18:41:31.142Z,101790.30
2018-09-10T18:44:35.356Z,101793.76
2018-09-10T18:47:39.561Z,101796.18
2018-09-10T18:50:43.770Z,101793.63
2018-09-10T18:53:47.998Z,101805.73
2018-09-10T18:56:52.200Z,101802.14
2018-09-10T18:59:56.448Z,101788.38
2018-09-10T19:03:00.659Z,101782.36
2018-09-10T19:06:04.897Z,101786.82
2018-09-10T19:09:11.051Z,101789.17
2018-09-10T19:12:15.261Z,101792.20
2018-09-10T19:15:19.481Z,101791.44
2018-09-10T19:18:27.768Z,101788.22
2018-09-10T19:21:31.993Z,101795.36
2018-09-10T19:24:36.233Z,101805.63
2018-09-10T19:27:40.455Z,101793.13
2018-09-10T19:30:44.664Z,101797.00
2018-09-10T19:33:48.911Z,101793.28
2018-09-10T19:36:53.100Z,101788.74
2018-09-10T19:39:57.308Z,101788.84
2018-09-10T19:43:01.533Z,101796.18
2018-09-10T19:46:05.785Z,101789.75
2018-09-10T19:49:09.988Z,101789.33
2018-09-10T19:52:14.223Z,101790.84
2018-09-10T19:55:18.416Z,101790.74
2018-09-10T19:58:22.615Z,101787.02
2018-09-10T20:01:26.833Z,101782.77
2018-09-10T20:04:31.056Z,101775.72
2018-09-10T20:07:35.289Z,101766.54
2018-09-10T20:10:39.504Z,101757.18
2018-09-10T20:13:43.707Z,101763.05
2018-09-10T20:16:47.897Z,101768.70
2018-09-10T20:19:52.110Z,101762.70
2018-09-10T20:22:56.288Z,101758.16
2018-09-10T20:26:00.600Z,101766.55
2018-09-10T20:29:04.801Z,101761.77
2018-09-10T20:32:09.350Z,101774.24
2018-09-10T20:35:13.670Z,101776.14
2018-09-10T20:38:18.498Z,101772.11
2018-09-10T20:41:22.687Z,101772.71
2018-09-10T20:44:26.924Z,101750.19
2018-09-10T20:47:31.156Z,101739.56
2018-09-10T20:50:35.404Z,101745.56
2018-09-10T20:53:39.615Z,101751.50
2018-09-10T20:56:43.824Z,101743.22
2018-09-10T20:59:48.037Z,101743.30
2018-09-10T21:02:52.253Z,101757.98
2018-09-10T21:05:56.459Z,101763.30
2018-09-10T21:09:00.677Z,101764.84
2018-09-10T21:12:04.971Z,101762.17
2018-09-10T21:15:09.195Z,101762.01
2018-09-10T21:18:13.433Z,101756.93
2018-09-10T21:21:17.641Z,101757.62
2018-09-10T21:24:21.888Z,101748.79
2018-09-10T21:27:26.106Z,101747.36
2018-09-10T21:30:30.324Z,101747.59
2018-09-10T21:33:34.533Z,101750.32
2018-09-10T21:36:38.783Z,101745.37
2018-09-10T21:39:43.021Z,101748.86
2018-09-10T21:42:47.257Z,101742.34
2018-09-10T21:45:51.508Z,101737.91
2018-09-10T21:48:55.743Z,101733.22
2018-09-10T21:51:59.968Z,101734.27
2018-09-10T21:55:04.245Z,101735.18
2018-09-10T21:58:08.504Z,101732.21
2018-09-10T22:01:12.741Z,101733.29
2018-09-10T22:04:16.964Z,101737.91
2018-09-10T22:07:21.177Z,101732.15
2018-09-10T22:10:25.427Z,101718.08
2018-09-10T22:13:29.626Z,101717.04
2018-09-10T22:16:33.859Z,101718.83
2018-09-10T22:19:38.069Z,101717.56
2018-09-10T22:22:42.498Z,101709.88
2018-09-10T22:25:46.733Z,101713.98
2018-09-10T22:28:51.035Z,101723.88
2018-09-10T22:31:55.224Z,101723.33
2018-09-10T22:34:59.448Z,101730.72
2018-09-10T22:38:03.676Z,101724.92
2018-09-10T22:41:07.925Z,101722.41
2018-09-10T22:44:12.144Z,101714.50
2018-09-10T22:47:16.364Z,101706.09
2018-09-10T22:50:20.605Z,101705.48
2018-09-10T22:53:24.780Z,101704.41
2018-09-10T22:56:28.986Z,101705.48
2018-09-10T22:59:33.237Z,101704.92
2018-09-10T23:02:37.463Z,101703.55
2018-09-10T23:05:41.669Z,101705.25
2018-09-10T23:08:45.948Z,101697.80
2018-09-10T23:11:50.118Z,101682.98
2018-09-10T23:14:54.355Z,101680.01
2018-09-10T23:17:58.593Z,101674.83
2018-09-10T23:21:02.816Z,101683.59
2018-09-10T23:24:07.086Z,101675.06
2018-09-10T23:27:11.326Z,101662.39
2018-09-10T23:30:15.554Z,101658.20
2018-09-10T23:33:19.780Z,101654.88
2018-09-10T23:36:24.049Z,101669.38
2018-09-10T23:39:28.253Z,101672.05
2018-09-10T23:42:32.498Z,101674.25
2018-09-10T23:45:36.711Z,101668.69
2018-09-10T23:48:40.950Z,101665.66
2018-09-10T23:51:45.197Z,101662.08
2018-09-10T23:54:49.457Z,101668.40
2018-09-10T23:57:53.657Z,101661.03
